Time;durP1;ratioP1;P1;durP2;ratioP2;P2;SDS_P1;SDS_P2;PMS_P1;PMS_P2;Temp;Humidity;BMP_temperature;BMP_pressure;BME280_temperature;BME280_humidity;BME280_pressure;Samples;Min_cycle;Max_cycle;Signal;HPM_P1;HPM_P2
2023/09/19 00:04:39;;;;;;;7.85;4.18;;;;;;;;;;10416698;28;20504;-81
2023/09/19 00:09:39;;;;;;;5.32;3.92;;;;;;;;;;10431780;28;20453;-79
2023/09/19 00:14:40;;;;;;;6.32;4.45;;;;;;;;;;10431777;28;20055;-83
2023/09/19 00:19:42;;;;;;;7.88;4.47;;;;;;;;;;10431975;28;20110;-78
2023/09/19 00:24:47;;;;;;;6.00;4.30;;;;;;;;;;10439782;28;20037;-73
2023/09/19 00:29:50;;;;;;;6.97;4.57;;;;;;;;;;10423743;28;20056;-78
2023/09/19 00:35:02;;;;;;;7.85;4.75;;;;;;;;;;10448144;28;20023;-71
2023/09/19 00:40:05;;;;;;;5.78;4.30;;;;;;;;;;10458068;28;20032;-77
2023/09/19 00:45:06;;;;;;;13.38;4.70;;;;;;;;;;10457254;28;20111;-70
2023/09/19 00:50:08;;;;;;;8.55;4.15;;;;;;;;;;10453749;28;20101;-81
2023/09/19 00:55:09;;;;;;;6.40;4.85;;;;;;;;;;10390249;28;20026;-76
2023/09/19 01:00:15;;;;;;;7.13;5.18;;;;;;;;;;10407116;28;20543;-80
2023/09/19 01:05:16;;;;;;;14.00;4.88;;;;;;;;;;10392521;28;20021;-80
2023/09/19 01:10:18;;;;;;;11.30;5.32;;;;;;;;;;10450302;28;20071;-81
2023/09/19 01:15:20;;;;;;;15.07;6.35;;;;;;;;;;10446739;28;20021;-77
2023/09/19 01:20:27;;;;;;;13.13;5.95;;;;;;;;;;10429817;28;20513;-81
2023/09/19 01:25:51;;;;;;;6.23;4.60;;;;;;;;;;10431114;28;20036;-76
2023/09/19 01:30:54;;;;;;;8.30;5.20;;;;;;;;;;10437427;28;20025;-80
2023/09/19 01:35:57;;;;;;;9.95;5.05;;;;;;;;;;10437808;28;20837;-81
2023/09/19 01:41:03;;;;;;;12.32;5.75;;;;;;;;;;10454723;28;20616;-76
2023/09/19 01:46:16;;;;;;;6.20;5.40;;;;;;;;;;10434649;28;20484;-74
2023/09/19 01:51:32;;;;;;;15.32;5.82;;;;;;;;;;10455612;28;20049;-84
2023/09/19 01:56:38;;;;;;;9.38;4.95;;;;;;;;;;10428025;28;20029;-83
2023/09/19 02:01:39;;;;;;;8.73;5.68;;;;;;;;;;10455414;28;20024;-81
2023/09/19 02:07:02;;;;;;;12.32;5.97;;;;;;;;;;10456517;28;20017;-84
2023/09/19 02:12:07;;;;;;;8.88;5.15;;;;;;;;;;10459344;28;20051;-82
2023/09/19 02:17:12;;;;;;;9.55;5.40;;;;;;;;;;10421216;28;20033;-78
2023/09/19 02:22:16;;;;;;;7.40;5.38;;;;;;;;;;10471164;28;20053;-85
2023/09/19 02:27:17;;;;;;;7.43;4.82;;;;;;;;;;10470558;28;20033;-83
2023/09/19 02:32:18;;;;;;;6.25;4.57;;;;;;;;;;10443590;28;20048;-81
2023/09/19 02:37:19;;;;;;;8.70;5.50;;;;;;;;;;10421092;28;20060;-83
2023/09/19 02:42:21;;;;;;;10.55;5.40;;;;;;;;;;10449066;28;20025;-84
2023/09/19 02:47:24;;;;;;;10.85;5.25;;;;;;;;;;10462455;28;20033;-73
2023/09/19 02:52:25;;;;;;;8.77;5.53;;;;;;;;;;10438758;28;20344;-78
2023/09/19 02:57:25;;;;;;;15.32;5.32;;;;;;;;;;10409346;28;20026;-73
2023/09/19 03:02:27;;;;;;;8.75;6.00;;;;;;;;;;10471922;28;20092;-72
2023/09/19 03:07:29;;;;;;;11.15;5.65;;;;;;;;;;10445998;28;20025;-71
2023/09/19 03:12:31;;;;;;;11.80;6.00;;;;;;;;;;10438764;28;20033;-73
2023/09/19 03:17:32;;;;;;;13.05;5.78;;;;;;;;;;10455438;28;20485;-74
2023/09/19 03:22:34;;;;;;;10.60;5.95;;;;;;;;;;10397064;28;20137;-75
2023/09/19 03:27:38;;;;;;;12.82;6.00;;;;;;;;;;10431533;28;20463;-76
2023/09/19 03:32:46;;;;;;;14.10;5.85;;;;;;;;;;10426268;28;20034;-74
2023/09/19 03:37:47;;;;;;;;;;;;;;;;;;10419251;28;20034;-80
2023/09/19 03:42:48;;;;;;;12.38;6.45;;;;;;;;;;10422951;28;19973;-72
2023/09/19 03:47:52;;;;;;;8.43;5.90;;;;;;;;;;10437046;28;20116;-83
2023/09/19 03:52:56;;;;;;;11.23;5.88;;;;;;;;;;10431162;28;20125;-82
2023/09/19 03:57:57;;;;;;;9.32;5.95;;;;;;;;;;10425774;28;20074;-82
2023/09/19 04:02:57;;;;;;;9.13;5.80;;;;;;;;;;10420147;28;20056;-72
2023/09/19 04:07:57;;;;;;;13.37;6.87;;;;;;;;;;10425779;28;20044;-79
2023/09/19 04:13:03;;;;;;;17.98;7.53;;;;;;;;;;10445612;28;20092;-84
2023/09/19 04:18:04;;;;;;;13.23;7.82;;;;;;;;;;10433731;28;20413;-77
2023/09/19 04:23:05;;;;;;;14.37;7.10;;;;;;;;;;10369180;28;20045;-79
2023/09/19 04:28:07;;;;;;;12.52;7.40;;;;;;;;;;10408925;28;20373;-82
2023/09/19 04:33:17;;;;;;;21.90;8.07;;;;;;;;;;10396161;28;20108;-71
2023/09/19 04:38:19;;;;;;;11.50;7.40;;;;;;;;;;10393038;28;20516;-78
2023/09/19 04:43:24;;;;;;;11.70;7.53;;;;;;;;;;10411069;28;20037;-73
2023/09/19 04:48:31;;;;;;;22.23;8.82;;;;;;;;;;10415700;28;20065;-72
2023/09/19 04:53:35;;;;;;;17.92;8.18;;;;;;;;;;10430457;28;20025;-72
2023/09/19 04:58:36;;;;;;;26.10;8.50;;;;;;;;;;10402278;28;20029;-77
2023/09/19 05:03:39;;;;;;;22.67;8.50;;;;;;;;;;10412680;28;20474;-70
2023/09/19 05:08:39;;;;;;;14.13;7.40;;;;;;;;;;10406586;28;20028;-83
2023/09/19 05:13:39;;;;;;;14.60;7.00;;;;;;;;;;10403137;28;20029;-79
2023/09/19 05:18:45;;;;;;;12.10;5.85;;;;;;;;;;10447916;28;20056;-75
2023/09/19 05:23:46;;;;;;;12.95;6.28;;;;;;;;;;10390408;28;20049;-71
2023/09/19 05:28:48;;;;;;;9.85;6.13;;;;;;;;;;10412813;28;20045;-69
2023/09/19 05:33:49;;;;;;;8.90;5.32;;;;;;;;;;10423132;28;20418;-72
2023/09/19 05:38:53;;;;;;;9.68;4.97;;;;;;;;;;10428018;28;20013;-71
2023/09/19 05:43:54;;;;;;;12.98;6.30;;;;;;;;;;10411918;28;20045;-74
2023/09/19 05:48:56;;;;;;;15.15;7.05;;;;;;;;;;10431353;28;20022;-71
2023/09/19 05:59:45;;;;;;;7.78;4.53;;;;;;;;;;10432840;28;20017;-70
2023/09/19 06:04:45;;;;;;;5.30;3.85;;;;;;;;;;10404666;28;20049;-80
2023/09/19 06:15:52;;;;;;;6.80;4.43;;;;;;;;;;10439292;28;20022;-71
2023/09/19 06:20:54;;;;;;;9.43;4.22;;;;;;;;;;10441193;28;20080;-72
2023/09/19 06:25:54;;;;;;;9.93;4.28;;;;;;;;;;10474559;28;20135;-85
2023/09/19 06:31:11;;;;;;;11.83;4.83;;;;;;;;;;10461836;28;20128;-76
2023/09/19 06:36:34;;;;;;;13.50;4.97;;;;;;;;;;10461266;28;20029;-71
2023/09/19 06:53:25;;;;;;;9.43;4.35;;;;;;;;;;10469430;28;20159;-72
2023/09/19 07:04:36;;;;;;;9.63;5.05;;;;;;;;;;10419796;28;20416;-78
2023/09/19 07:09:36;;;;;;;18.05;6.88;;;;;;;;;;10433535;28;20501;-81
2023/09/19 07:20:08;;;;;;;19.92;6.15;;;;;;;;;;10475989;28;20432;-71
2023/09/19 07:30:54;;;;;;;16.15;6.35;;;;;;;;;;10397212;28;20045;-76
2023/09/19 07:35:55;;;;;;;10.20;5.28;;;;;;;;;;10421160;28;20033;-75
2023/09/19 07:41:06;;;;;;;7.55;5.13;;;;;;;;;;10437170;28;20044;-79
2023/09/19 07:52:25;;;;;;;8.00;4.85;;;;;;;;;;10438209;28;20021;-71
2023/09/19 07:57:48;;;;;;;11.40;4.72;;;;;;;;;;10423263;28;20040;-72
2023/09/19 08:02:52;;;;;;;11.65;5.47;;;;;;;;;;10404217;28;20030;-81
2023/09/19 08:08:13;;;;;;;8.45;4.57;;;;;;;;;;10414205;28;20036;-76
2023/09/19 08:19:01;;;;;;;8.13;4.25;;;;;;;;;;10456966;23;20048;-76
2023/09/19 08:24:09;;;;;;;6.00;4.23;;;;;;;;;;10431313;28;20033;-79
2023/09/19 08:29:13;;;;;;;9.15;4.80;;;;;;;;;;10470535;28;20102;-61
2023/09/19 08:34:15;;;;;;;8.80;4.78;;;;;;;;;;10432150;28;20036;-81
2023/09/19 08:39:16;;;;;;;12.60;4.13;;;;;;;;;;10408927;28;20020;-70
2023/09/19 08:44:58;;;;;;;4.72;3.45;;;;;;;;;;10460245;28;20017;-71
2023/09/19 08:50:05;;;;;;;6.88;3.70;;;;;;;;;;10459717;28;20013;-78
2023/09/19 08:55:26;;;;;;;7.07;3.73;;;;;;;;;;10475989;28;20217;-72
2023/09/19 09:00:30;;;;;;;9.02;4.25;;;;;;;;;;10474072;28;20029;-71
2023/09/19 09:05:32;;;;;;;6.97;4.07;;;;;;;;;;10456334;28;20033;-70
2023/09/19 09:10:32;;;;;;;7.55;3.80;;;;;;;;;;10452763;28;20017;-74
2023/09/19 09:16:01;;;;;;;11.32;4.70;;;;;;;;;;10510439;28;20052;-70
2023/09/19 09:21:27;;;;;;;8.23;3.85;;;;;;;;;;10514011;28;20106;-71
2023/09/19 09:26:47;;;;;;;7.97;3.35;;;;;;;;;;10500554;28;20044;-75
2023/09/19 09:31:48;;;;;;;7.30;3.35;;;;;;;;;;10478272;28;20048;-82
2023/09/19 09:37:03;;;;;;;11.27;5.07;;;;;;;;;;10510759;28;20032;-72
2023/09/19 09:42:06;;;;;;;10.48;3.45;;;;;;;;;;10497655;28;20053;-80
2023/09/19 09:52:46;;;;;;;8.45;4.00;;;;;;;;;;10523846;28;20028;-79
2023/09/19 09:57:56;;;;;;;6.07;3.22;;;;;;;;;;10495399;28;20032;-70
2023/09/19 10:02:57;;;;;;;6.18;2.92;;;;;;;;;;10478551;28;20068;-78
2023/09/19 10:08:12;;;;;;;4.47;2.78;;;;;;;;;;10505115;28;20032;-78
2023/09/19 10:13:18;;;;;;;12.52;5.00;;;;;;;;;;10492973;28;20024;-80
2023/09/19 10:24:08;;;;;;;8.55;3.35;;;;;;;;;;10523828;28;20036;-77
2023/09/19 10:29:10;;;;;;;8.68;3.80;;;;;;;;;;10492670;28;20040;-80
2023/09/19 10:34:10;;;;;;;6.72;3.55;;;;;;;;;;10477723;28;20035;-83
2023/09/19 10:39:50;;;;;;;6.00;3.80;;;;;;;;;;10473333;28;20036;-72
2023/09/19 10:44:59;;;;;;;9.82;3.58;;;;;;;;;;10505171;28;20036;-77
2023/09/19 10:50:01;;;;;;;6.20;4.15;;;;;;;;;;10502690;28;20483;-72
2023/09/19 10:55:18;;;;;;;5.35;3.97;;;;;;;;;;10487483;28;20028;-72
2023/09/19 11:00:49;;;;;;;9.63;3.90;;;;;;;;;;10495131;28;20115;-70
2023/09/19 11:06:09;;;;;;;7.72;3.22;;;;;;;;;;10486156;28;20785;-78
2023/09/19 11:17:20;;;;;;;11.60;3.35;;;;;;;;;;10521974;28;20039;-80
2023/09/19 11:22:22;;;;;;;7.22;3.22;;;;;;;;;;10477643;28;20566;-76
2023/09/19 11:27:24;;;;;;;7.80;3.20;;;;;;;;;;10504190;28;20049;-78
2023/09/19 11:32:49;;;;;;;6.38;3.17;;;;;;;;;;10507820;28;20021;-78
2023/09/19 11:37:52;;;;;;;9.02;3.80;;;;;;;;;;10498196;28;20024;-70
2023/09/19 11:42:59;;;;;;;6.90;3.97;;;;;;;;;;10535039;28;20017;-75
2023/09/19 11:48:57;;;;;;;7.15;3.92;;;;;;;;;;10506227;28;20036;-71
2023/09/19 11:54:00;;;;;;;6.65;3.85;;;;;;;;;;10519227;28;20377;-81
2023/09/19 11:59:00;;;;;;;5.90;4.00;;;;;;;;;;10479200;28;20028;-82
2023/09/19 12:04:01;;;;;;;9.52;3.80;;;;;;;;;;10496096;28;20032;-82
2023/09/19 12:14:47;;;;;;;7.65;3.58;;;;;;;;;;10504673;23;20369;-75
2023/09/19 12:19:51;;;;;;;16.08;4.03;;;;;;;;;;10480990;28;20307;-75
2023/09/19 12:24:54;;;;;;;7.97;4.10;;;;;;;;;;10493475;28;20035;-75
2023/09/19 12:29:55;;;;;;;6.03;3.58;;;;;;;;;;10475708;28;20012;-75
2023/09/19 12:34:55;;;;;;;7.20;3.65;;;;;;;;;;10501213;28;20329;-75
2023/09/19 12:40:17;;;;;;;6.47;3.67;;;;;;;;;;10500995;28;20020;-75
2023/09/19 12:45:18;;;;;;;8.77;3.38;;;;;;;;;;10420377;28;20029;-76
2023/09/19 12:50:25;;;;;;;5.68;3.30;;;;;;;;;;10492678;28;20131;-75
2023/09/19 12:55:32;;;;;;;7.10;3.70;;;;;;;;;;10459301;28;20353;-75
2023/09/19 13:00:42;;;;;;;12.82;3.88;;;;;;;;;;10479136;28;20084;-75
2023/09/19 13:05:53;;;;;;;8.07;3.90;;;;;;;;;;10474676;28;20303;-75
2023/09/19 13:11:21;;;;;;;8.07;4.07;;;;;;;;;;10458376;28;20056;-75
2023/09/19 13:16:23;;;;;;;7.88;3.70;;;;;;;;;;10454799;28;20044;-75
2023/09/19 13:21:42;;;;;;;6.97;3.50;;;;;;;;;;10449818;28;20021;-74
2023/09/19 13:26:42;;;;;;;6.53;3.78;;;;;;;;;;10434622;28;20211;-73
2023/09/19 13:31:45;;;;;;;8.95;4.10;;;;;;;;;;10433420;28;20013;-72
2023/09/19 13:36:49;;;;;;;6.45;3.97;;;;;;;;;;10432080;28;20021;-72
2023/09/19 13:41:49;;;;;;;8.68;3.70;;;;;;;;;;10414753;28;20020;-76
2023/09/19 13:46:50;;;;;;;7.45;4.00;;;;;;;;;;10430158;28;20027;-77
2023/09/19 13:51:51;;;;;;;8.52;4.38;;;;;;;;;;10429846;28;20014;-76
2023/09/19 13:56:51;;;;;;;11.80;4.53;;;;;;;;;;10412737;28;20340;-73
2023/09/19 14:01:53;;;;;;;8.70;4.25;;;;;;;;;;10432943;28;20013;-77
2023/09/19 14:06:53;;;;;;;4.85;3.70;;;;;;;;;;10431683;28;20341;-75
2023/09/19 14:11:53;;;;;;;7.40;4.38;;;;;;;;;;10437442;28;20217;-73
2023/09/19 14:16:54;;;;;;;6.28;4.25;;;;;;;;;;10427852;28;20021;-71
2023/09/19 14:21:58;;;;;;;7.95;4.68;;;;;;;;;;10430708;28;20239;-73
2023/09/19 14:26:59;;;;;;;6.07;3.80;;;;;;;;;;10434974;28;20024;-73
2023/09/19 14:31:59;;;;;;;8.00;3.58;;;;;;;;;;10430859;28;20176;-74
2023/09/19 14:36:59;;;;;;;4.97;4.18;;;;;;;;;;10427074;28;20017;-74
2023/09/19 14:42:00;;;;;;;9.00;4.93;;;;;;;;;;10438701;28;20219;-71
2023/09/19 14:47:00;;;;;;;7.72;4.38;;;;;;;;;;10434586;28;20081;-72
2023/09/19 14:52:03;;;;;;;6.10;4.50;;;;;;;;;;10441158;28;20021;-71
2023/09/19 14:57:04;;;;;;;9.73;4.97;;;;;;;;;;10437196;28;20270;-71
2023/09/19 15:02:04;;;;;;;7.03;4.45;;;;;;;;;;10427956;28;20717;-71
2023/09/19 15:07:05;;;;;;;6.88;4.07;;;;;;;;;;10435886;28;20316;-71
2023/09/19 15:12:05;;;;;;;8.95;5.20;;;;;;;;;;10432742;28;20051;-71
2023/09/19 15:17:05;;;;;;;7.13;4.57;;;;;;;;;;10438168;28;20335;-71
2023/09/19 15:22:06;;;;;;;8.83;5.20;;;;;;;;;;10440042;28;20333;-72
2023/09/19 15:27:06;;;;;;;8.05;4.32;;;;;;;;;;10434398;28;20034;-72
2023/09/19 15:32:07;;;;;;;8.50;4.80;;;;;;;;;;10437541;28;20029;-71
2023/09/19 15:37:07;;;;;;;7.13;4.68;;;;;;;;;;10432805;28;20079;-71
2023/09/19 15:42:07;;;;;;;5.75;4.10;;;;;;;;;;10435847;28;20065;-71
2023/09/19 15:47:08;;;;;;;10.00;5.80;;;;;;;;;;10425116;28;20032;-70
2023/09/19 15:52:08;;;;;;;8.82;4.82;;;;;;;;;;10437551;28;20379;-72
2023/09/19 15:57:13;;;;;;;11.60;5.65;;;;;;;;;;10441294;28;20072;-71
2023/09/19 16:02:14;;;;;;;7.78;5.55;;;;;;;;;;10437571;28;20212;-72
2023/09/19 16:07:15;;;;;;;8.45;6.22;;;;;;;;;;10439169;28;20024;-71
2023/09/19 16:12:15;;;;;;;7.50;5.05;;;;;;;;;;10435900;28;20429;-72
2023/09/19 16:17:16;;;;;;;9.90;4.75;;;;;;;;;;10425954;28;20036;-71
2023/09/19 16:22:16;;;;;;;10.03;4.90;;;;;;;;;;10431798;28;20025;-72
2023/09/19 16:27:20;;;;;;;15.10;5.85;;;;;;;;;;10433332;28;20066;-72
2023/09/19 16:32:21;;;;;;;13.35;5.93;;;;;;;;;;10432719;28;20168;-82
2023/09/19 16:37:23;;;;;;;14.73;6.85;;;;;;;;;;10432789;28;20044;-79
2023/09/19 16:42:24;;;;;;;12.35;6.03;;;;;;;;;;10427026;28;20233;-79
2023/09/19 16:47:24;;;;;;;14.95;7.45;;;;;;;;;;10421604;28;20017;-79
2023/09/19 16:52:24;;;;;;;21.02;8.20;;;;;;;;;;10439372;28;20017;-79
2023/09/19 16:57:24;;;;;;;12.90;7.17;;;;;;;;;;10440096;28;20047;-79
2023/09/19 17:02:25;;;;;;;14.68;6.90;;;;;;;;;;10431307;28;20098;-79
2023/09/19 17:07:25;;;;;;;10.93;7.18;;;;;;;;;;10421475;28;20247;-79
2023/09/19 17:12:26;;;;;;;18.27;7.50;;;;;;;;;;10433187;28;20104;-79
2023/09/19 17:17:26;;;;;;;13.05;6.80;;;;;;;;;;10426985;28;20033;-78
2023/09/19 17:22:27;;;;;;;10.95;6.40;;;;;;;;;;10431931;28;20025;-78
2023/09/19 17:27:27;;;;;;;16.50;7.20;;;;;;;;;;10427871;28;20276;-78
2023/09/19 17:32:27;;;;;;;13.40;6.53;;;;;;;;;;10429495;28;20166;-79
2023/09/19 17:37:27;;;;;;;17.20;7.18;;;;;;;;;;10431966;28;20072;-79
2023/09/19 17:42:28;;;;;;;8.52;5.30;;;;;;;;;;10439117;28;20206;-75
2023/09/19 17:47:28;;;;;;;14.93;7.70;;;;;;;;;;10432847;28;20567;-75
2023/09/19 17:52:29;;;;;;;11.87;7.40;;;;;;;;;;10429675;28;20013;-78
2023/09/19 17:57:30;;;;;;;16.00;7.80;;;;;;;;;;10431588;28;20162;-76
2023/09/19 18:02:30;;;;;;;168.18;157.55;;;;;;;;;;10411676;28;20031;-73
2023/09/19 18:07:31;;;;;;;9.90;4.82;;;;;;;;;;10428589;28;20025;-80
2023/09/19 18:12:31;;;;;;;83.32;77.68;;;;;;;;;;10443262;28;20047;-75
2023/09/19 18:17:32;;;;;;;127.70;119.50;;;;;;;;;;10448813;28;20353;-77
2023/09/19 18:22:33;;;;;;;212.70;199.70;;;;;;;;;;10444793;28;20048;-78
2023/09/19 18:27:35;;;;;;;23.83;15.27;;;;;;;;;;10445767;28;20263;-79
2023/09/19 18:32:37;;;;;;;13.52;5.78;;;;;;;;;;10428170;28;20025;-72
2023/09/19 18:37:38;;;;;;;243.13;227.68;;;;;;;;;;10444242;28;20021;-72
2023/09/19 18:42:40;;;;;;;18.98;11.57;;;;;;;;;;10442416;28;20025;-71
2023/09/19 18:47:40;;;;;;;13.07;6.85;;;;;;;;;;10456143;28;20024;-74
2023/09/19 18:52:41;;;;;;;90.67;84.13;;;;;;;;;;10443833;28;20029;-69
2023/09/19 18:57:42;;;;;;;243.77;228.38;;;;;;;;;;10443606;28;20315;-74
2023/09/19 19:02:42;;;;;;;220.70;206.90;;;;;;;;;;10447219;28;20031;-76
2023/09/19 19:07:43;;;;;;;413.92;386.48;;;;;;;;;;10444104;28;20087;-75
2023/09/19 19:12:44;;;;;;;526.00;490.27;;;;;;;;;;10425262;28;20064;-73
2023/09/19 19:17:44;;;;;;;592.05;551.20;;;;;;;;;;10447023;28;20031;-77
2023/09/19 19:22:45;;;;;;;11.95;7.57;;;;;;;;;;10426497;28;20051;-73
2023/09/19 19:27:46;;;;;;;566.70;527.75;;;;;;;;;;10445143;28;20349;-73
2023/09/19 19:32:47;;;;;;;376.90;352.00;;;;;;;;;;10424553;28;20044;-75
2023/09/19 19:37:49;;;;;;;456.55;426.88;;;;;;;;;;10442530;28;20021;-73
2023/09/19 19:42:49;;;;;;;878.83;813.83;;;;;;;;;;10445775;28;20017;-71
2023/09/19 19:47:49;;;;;;;337.02;313.35;;;;;;;;;;10443330;28;20345;-71
2023/09/19 19:52:59;;;;;;;379.63;354.20;;;;;;;;;;10444113;28;20035;-72
2023/09/19 19:57:59;;;;;;;708.42;658.20;;;;;;;;;;10442090;28;20072;-74
2023/09/19 20:02:59;;;;;;;965.63;895.28;;;;;;;;;;10440697;28;20001;-74
2023/09/19 20:08:00;;;;;;;499.60;467.73;;;;;;;;;;10444102;28;20040;-74
2023/09/19 20:13:00;;;;;;;311.92;292.92;;;;;;;;;;10440731;28;20243;-73
2023/09/19 20:18:01;;;;;;;559.00;521.92;;;;;;;;;;10442246;28;20060;-69
2023/09/19 20:23:02;;;;;;;615.63;573.28;;;;;;;;;;10440525;28;20033;-72
2023/09/19 20:28:03;;;;;;;517.15;483.40;;;;;;;;;;10445247;28;20033;-72
2023/09/19 20:33:05;;;;;;;697.80;647.58;;;;;;;;;;10447381;28;20021;-71
2023/09/19 20:38:06;;;;;;;731.83;678.85;;;;;;;;;;10447683;28;20028;-71
2023/09/19 20:43:06;;;;;;;738.53;686.50;;;;;;;;;;10437376;28;20017;-72
2023/09/19 20:48:07;;;;;;;17.80;8.73;;;;;;;;;;10470284;28;20028;-70
2023/09/19 20:53:08;;;;;;;867.90;802.78;;;;;;;;;;10476075;28;20227;-70
2023/09/19 20:58:08;;;;;;;418.00;387.30;;;;;;;;;;10459887;28;20048;-69
2023/09/19 21:03:13;;;;;;;884.17;804.22;;;;;;;;;;10464363;28;20087;-69
2023/09/19 21:08:14;;;;;;;677.58;632.42;;;;;;;;;;10497587;28;20022;-69
2023/09/19 21:13:14;;;;;;;909.22;841.72;;;;;;;;;;10486037;28;20052;-71
2023/09/19 21:18:14;;;;;;;715.30;667.00;;;;;;;;;;10472367;28;20025;-69
2023/09/19 21:23:15;;;;;;;12.90;6.20;;;;;;;;;;10500415;28;20028;-69
2023/09/19 21:28:15;;;;;;;13.17;6.27;;;;;;;;;;10500451;28;20207;-69
2023/09/19 21:33:17;;;;;;;18.60;7.57;;;;;;;;;;10489138;28;20031;-69
2023/09/19 21:38:18;;;;;;;12.38;6.53;;;;;;;;;;10477056;28;20307;-69
2023/09/19 21:43:19;;;;;;;172.23;160.32;;;;;;;;;;10475190;28;20032;-69
2023/09/19 21:48:19;;;;;;;633.38;590.78;;;;;;;;;;10449109;28;20180;-69
2023/09/19 21:53:19;;;;;;;10.40;5.10;;;;;;;;;;10496660;28;20215;-71
2023/09/19 21:58:20;;;;;;;16.80;6.22;;;;;;;;;;10508043;28;20021;-69
2023/09/19 22:03:20;;;;;;;16.33;5.20;;;;;;;;;;10485220;28;20020;-70
2023/09/19 22:08:21;;;;;;;11.27;5.03;;;;;;;;;;10492759;28;20593;-71
2023/09/19 22:13:22;;;;;;;417.08;390.92;;;;;;;;;;10459642;28;20041;-71
2023/09/19 22:18:22;;;;;;;12.32;8.80;;;;;;;;;;10488906;28;20028;-71
2023/09/19 22:23:29;;;;;;;43.88;37.25;;;;;;;;;;10497439;28;20198;-71
2023/09/19 22:28:33;;;;;;;10.07;5.00;;;;;;;;;;10485325;28;20078;-69
2023/09/19 22:33:40;;;;;;;7.18;3.88;;;;;;;;;;10469302;28;20043;-69
2023/09/19 22:38:40;;;;;;;8.38;4.20;;;;;;;;;;10505820;28;20009;-69
2023/09/19 22:43:48;;;;;;;8.73;3.90;;;;;;;;;;10505396;28;20321;-70
2023/09/19 22:48:48;;;;;;;881.17;807.30;;;;;;;;;;10492283;28;20012;-70
2023/09/19 22:53:57;;;;;;;6.85;4.00;;;;;;;;;;10491430;28;20321;-70
2023/09/19 22:58:58;;;;;;;816.97;754.95;;;;;;;;;;10504753;28;20199;-69
2023/09/19 23:09:20;;;;;;;6.05;4.18;;;;;;;;;;10504842;28;20214;-70
2023/09/19 23:14:23;;;;;;;724.40;666.50;;;;;;;;;;10504816;28;20040;-69
2023/09/19 23:19:29;;;;;;;9.15;5.80;;;;;;;;;;10504599;28;20095;-70
2023/09/19 23:24:37;;;;;;;7.50;5.25;;;;;;;;;;10468095;28;20045;-69
2023/09/19 23:29:38;;;;;;;15.75;14.27;;;;;;;;;;10463178;28;20049;-69
2023/09/19 23:34:39;;;;;;;8.18;5.43;;;;;;;;;;10463685;28;20232;-70
2023/09/19 23:39:41;;;;;;;6.80;4.70;;;;;;;;;;10462266;28;20017;-69
2023/09/19 23:44:48;;;;;;;10.45;4.75;;;;;;;;;;10481499;28;20027;-70
2023/09/19 23:49:48;;;;;;;11.30;6.13;;;;;;;;;;10503318;28;20202;-69
2023/09/19 23:54:50;;;;;;;8.02;6.13;;;;;;;;;;10488282;28;20016;-69
2023/09/19 23:59:50;;;;;;;9.25;5.88;;;;;;;;;;10489149;28;20021;-70
